WetterOnline ( https://www.wetteronline.ch )

Wetter aktuell München

Aktuelles Wetter: München/Flughafen (447m)

6-stündlich | Neueste Meldungen
Ortszeit Temperatur Wetter
So, 16.06. 2:00 15.4° C Gewitter
Sa, 15.06. 20:00 22.5° C wolkig
Sa, 15.06. 14:00 25.4° C leicht bewölkt
Sa, 15.06. 8:00 21.1° C fast wolkenlos
Sa, 15.06. 2:00 19.3° C wolkig
Fr, 14.06. 20:00 26.3° C leicht bewölkt
Fr, 14.06. 14:00 27.4° C fast wolkenlos
Fr, 14.06. 8:00 17.5° C fast wolkenlos
Ortszeit Temperatur Wetter
So, 16.06. 7:20 15° C bewölkt
So, 16.06. 7:00 14.6° C bewölkt
So, 16.06. 6:50 14.6° C -
So, 16.06. 6:40 14.6° C -
So, 16.06. 6:30 14.5° C -
So, 16.06. 6:20 14.5° C -
So, 16.06. 6:00 14.3° C wolkig
So, 16.06. 5:30 14.6° C -
So, 16.06. 5:00 14.8° C bewölkt, nach Regen
So, 16.06. 4:30 14.7° C -
So, 16.06. 4:00 14.8° C leichter Regen
Ortszeit Relative Feuchte Sichtweite
So, 16.06. 2:00 96% 9 km
Sa, 15.06. 20:00 60% 40 km
Sa, 15.06. 14:00 49% 50 km
Sa, 15.06. 8:00 71% >70 km
Sa, 15.06. 2:00 85% 30 km
Fr, 14.06. 20:00 57% 50 km
Fr, 14.06. 14:00 51% 45 km
Fr, 14.06. 8:00 77% 20 km
Ortszeit Relative Feuchte Sichtweite
So, 16.06. 7:20 88% >10 km
So, 16.06. 7:00 92% 45 km
So, 16.06. 6:50 92% -
So, 16.06. 6:40 93% -
So, 16.06. 6:30 91% 40 km
So, 16.06. 6:20 91% -
So, 16.06. 6:00 92% 25 km
So, 16.06. 5:30 92% 40 km
So, 16.06. 5:00 93% 30 km
So, 16.06. 4:30 95% 35 km
So, 16.06. 4:00 95% 30 km
Ortszeit Niederschlagsmenge Niederschlagsart
So, 16.06. 2:00 3 l/m2 in 6 Std. -
Sa, 15.06. 20:00 0.0 l/m2 in 12 Std. -
Sa, 15.06. 14:00 0.0 l/m2 in 6 Std. -
Sa, 15.06. 8:00 0.0 l/m2 in 12 Std. -
Sa, 15.06. 2:00 0.0 l/m2 in 6 Std. -
Fr, 14.06. 20:00 0.0 l/m2 in 12 Std. -
Fr, 14.06. 14:00 0.0 l/m2 in 6 Std. -
Fr, 14.06. 8:00 0.0 l/m2 in 12 Std. Nebel
Ortszeit Niederschlagsmenge Niederschlagsart
So, 16.06. 7:20 keine Meldung -
So, 16.06. 7:00 0.0 l/m2 in 1 Std. -
So, 16.06. 6:50 keine Meldung -
So, 16.06. 6:40 keine Meldung -
So, 16.06. 6:30 0.0 l/m2 in 1 Std. -
So, 16.06. 6:20 keine Meldung -
So, 16.06. 6:00 0.0 l/m2 in 1 Std. -
So, 16.06. 5:30 0.0 l/m2 in 1 Std. -
So, 16.06. 5:00 0.4 l/m2 in 1 Std. Regen
So, 16.06. 4:30 0.4 l/m2 in 1 Std. -
So, 16.06. 4:00 0.1 l/m2 in 1 Std. -
Ortszeit Stärke Spitze Richtung
km/h Bft. km/h Grad Sektor
So, 16.06. 2:00 28 4 67 260° W
Sa, 15.06. 20:00 7 2 32 20° N
Sa, 15.06. 14:00 17 3 46 280° W
Sa, 15.06. 8:00 22 4 32 260° W
Sa, 15.06. 2:00 11 2 14 230° SW
Fr, 14.06. 20:00 9 2 33 340° N
Fr, 14.06. 14:00 20 4 43 80° O
Fr, 14.06. 8:00 6 1 9 50° NO
Ortszeit Stärke Spitze Richtung
km/h Bft. km/h Grad Sektor
So, 16.06. 7:20 15 3 - 260° W
So, 16.06. 7:00 15 3 28 250° W
So, 16.06. 6:50 15 3 - 250° W
So, 16.06. 6:40 14 3 - 250° W
So, 16.06. 6:30 20 4 28 250° W
So, 16.06. 6:20 20 4 - 250° W
So, 16.06. 6:00 15 3 30 250° W
So, 16.06. 5:30 17 3 30 260° W
So, 16.06. 5:00 18 3 32 260° W
So, 16.06. 4:30 24 4 31 240° SW
So, 16.06. 4:00 25 4 32 220° SW
Ortszeit Untergrenze Bedeckung Gattung
total tief tief mittel hoch
So, 16.06. 2:00 1050 m 8/8 8/8 Cb - -
Sa, 15.06. 20:00 1260 m 7/8 1/8 Cu Ac Cs
Sa, 15.06. 14:00 1440 m 7/8 1/8 Cu - Cs
Sa, 15.06. 8:00 3900 m 2/8 1/8 - Ac Ci
Sa, 15.06. 2:00 4800 m 8/8 8/8 - As -
Fr, 14.06. 20:00 4800 m 7/8 3/8 - Ac Cs
Fr, 14.06. 14:00 9000 m 1/8 0/8 - - Ci
Fr, 14.06. 8:00 9000 m 1/8 0/8 - - Ci
Ortszeit Bedeckungsgrad in Achtel und Wolkenuntergrenze
So, 16.06. 7:20 1-2(330m) 5-7(900m)
So, 16.06. 7:00 3(540m) 6(1200m)
So, 16.06. 6:50 -
So, 16.06. 6:40 -
So, 16.06. 6:30 -
So, 16.06. 6:20 -
So, 16.06. 6:00 1(450m) 6(1050m)
So, 16.06. 5:30 -
So, 16.06. 5:00 1(390m) 7(750m)
So, 16.06. 4:30 -
So, 16.06. 4:00 2(390m) 4(750m) 6(1800m)
Ortszeit Luftdruck NN (hPa) Tendenz (hPa in 3 Std.)
So, 16.06. 2:00 1018 + 3,2
Sa, 15.06. 20:00 1013 - 0,3
Sa, 15.06. 14:00 1013 + 1,0
Sa, 15.06. 8:00 1011 + 1,5
Sa, 15.06. 2:00 1010 - 0,3
Fr, 14.06. 20:00 1010 - 1,4
Fr, 14.06. 14:00 1014 - 1,0
Fr, 14.06. 8:00 1017 - 0,3
Ortszeit Luftdruck NN (hPa) Tendenz (hPa in 3 Std.)
So, 16.06. 7:20 1020 keine Meldung
So, 16.06. 7:00 1020 + 0,9
So, 16.06. 6:50 1020 keine Meldung
So, 16.06. 6:40 1020 keine Meldung
So, 16.06. 6:30 1019 + 0,6
So, 16.06. 6:20 1019 keine Meldung
So, 16.06. 6:00 1019 + 0,9
So, 16.06. 5:30 1019 + 1,3
So, 16.06. 5:00 1019 + 0,3
So, 16.06. 4:30 1019 + 0,8
So, 16.06. 4:00 1019 + 2,5
Ortszeit Schneehöhe (cm)
So, 16.06. 2:00 0
Sa, 15.06. 20:00 0
Sa, 15.06. 14:00 0
Sa, 15.06. 8:00 0
Sa, 15.06. 2:00 0
Fr, 14.06. 20:00 0
Fr, 14.06. 14:00 0
Fr, 14.06. 8:00 0
Ortszeit Schneehöhe (cm)
So, 16.06. 7:20 -
So, 16.06. 7:00 0
So, 16.06. 6:50 0
So, 16.06. 6:40 0
So, 16.06. 6:30 0
So, 16.06. 6:20 0
So, 16.06. 6:00 0
So, 16.06. 5:30 0
So, 16.06. 5:00 0
So, 16.06. 4:30 0
So, 16.06. 4:00 0
Link zu dieser Seite / Seite empfehlen

Das Wetter in ...